Data for 09/22/2005

Time Sea-Level Adjusted Pressure Absolute Pressure Temperature Relative Humidity Dew Point   
(mb) (inHg) (mb) (inHg) (C) (F) (%) (C) (F)
00:05 1021 30.15 850 25.1 10.2 50.3 53 1.1 34
00:10 1021 30.15 850 25.1 10.2 50.4 53 1.2 34.1
00:15 1021 30.15 850 25.1 10.1 50.2 54 1.2 34.2
00:20 1021 30.15 850 25.1 10 50 54 1.2 34.1
00:25 1021 30.15 850 25.1 10 49.9 54 1 33.8
00:30 1021 30.15 850 25.1 10 49.9 54 1.2 34.2
00:35 1021 30.15 850 25.1 9.9 49.8 54 1 33.9
00:40 1021 30.15 850 25.1 9.9 49.8 54 1.2 34.1
00:45 1021 30.15 850 25.1 9.8 49.6 54 1 33.8
00:50 1021 30.15 850 25.1 9.8 49.6 54 1 33.8
00:55 1020 30.12 850 25.1 9.8 49.6 54 1 33.7
01:00 1020 30.12 850 25.1 9.7 49.5 54 1 33.7
01:05 1020 30.12 850 25.1 9.6 49.4 54 0.9 33.6
01:10 1020 30.12 850 25.1 9.6 49.3 54 0.9 33.6
01:15 1020 30.12 850 25.1 9.6 49.3 54 0.9 33.5
01:20 1020 30.12 850 25.1 9.7 49.4 54 0.9 33.7
01:25 1020 30.12 850 25.1 9.7 49.4 54 0.9 33.6
01:30 1020 30.12 850 25.1 9.7 49.4 54 0.9 33.6
01:35 1020 30.12 850 25.1 9.6 49.4 54 0.9 33.5
01:40 1020 30.12 850 25.1 9.7 49.4 54 0.8 33.4
01:45 1020 30.12 850 25.1 9.6 49.3 54 0.8 33.4
01:50 1020 30.12 850 25.1 9.6 49.3 54 0.8 33.4
01:55 1020 30.12 850 25.1 9.6 49.3 54 0.7 33.3
02:00 1020 30.12 849 25.07 9.5 49.1 54 0.8 33.5
02:05 1020 30.12 850 25.1 9.4 48.9 54 0.7 33.3
02:10 1020 30.12 850 25.1 9.3 48.8 54 0.7 33.2
02:15 1020 30.12 850 25.1 9.3 48.7 55 0.6 33.1
02:20 1020 30.12 850 25.1 9.2 48.5 55 0.5 33
02:25 1020 30.12 850 25.1 9.1 48.4 55 0.5 32.9
02:30 1020 30.12 849 25.07 9.1 48.3 55 0.4 32.8
02:35 1020 30.12 849 25.07 9 48.2 55 0.4 32.7
02:40 1020 30.12 849 25.07 9 48.1 55 0.3 32.6
02:45 1020 30.12 849 25.07 8.9 48.1 54 0.2 32.4
02:50 1020 30.12 849 25.07 9 48.2 54 0.1 32.2
02:55 1020 30.12 849 25.07 9 48.2 54 0.2 32.3
03:00 1020 30.12 849 25.07 9 48.2 54 0.1 32.2
03:05 1020 30.12 849 25.07 8.9 48 54 0.1 32.1
03:10 1020 30.12 849 25.07 8.9 48 54 0.2 32.4
03:15 1020 30.12 849 25.07 8.8 47.8 55 0.1 32.2
03:20 1020 30.12 849 25.07 8.8 47.8 54 0.1 32.1
03:25 1020 30.12 849 25.07 8.7 47.6 54 -0 31.9
03:30 1020 30.12 849 25.07 8.8 47.8 54 0 32
03:35 1020 30.12 849 25.07 8.8 47.8 54 -0 32
03:40 1020 30.12 849 25.07 8.6 47.6 55 0 32.1
03:45 1020 30.12 849 25.07 8.6 47.4 55 -0 32
03:50 1020 30.12 849 25.07 8.5 47.2 55 0.1 32.2
03:55 1020 30.12 849 25.07 8.4 47.1 55 0 32
04:00 1020 30.12 849 25.07 8.2 46.8 56 0.1 32.1
04:05 1020 30.12 849 25.07 8.1 46.6 57 0.1 32.1
04:10 1020 30.12 849 25.07 8 46.5 57 0.1 32.1
04:15 1020 30.12 849 25.07 7.9 46.2 58 0.2 32.3
04:20 1020 30.12 849 25.07 7.7 45.9 59 0.2 32.3
04:25 1020 30.12 849 25.07 7.7 45.8 59 0.2 32.3
04:30 1020 30.12 849 25.07 7.5 45.5 60 0.3 32.5
04:35 1020 30.12 849 25.07 7.5 45.4 60 0.2 32.4
04:40 1020 30.12 849 25.07 7.5 45.4 60 0.2 32.4
04:45 1020 30.12 849 25.07 7.5 45.4 60 0.2 32.4
04:50 1020 30.12 849 25.07 7.4 45.3 60 0.2 32.4
04:55 1020 30.12 849 25.07 7.4 45.3 61 0.3 32.5
05:00 1020 30.12 849 25.07 7.3 45.2 61 0.3 32.6
05:05 1020 30.12 849 25.07 7.3 45.1 61 0.2 32.4
05:10 1020 30.12 849 25.07 7.3 45.1 61 0.2 32.4
05:15 1020 30.12 849 25.07 7.4 45.3 61 0.3 32.5
05:20 1020 30.12 849 25.07 7.3 45.2 60 0.2 32.3
05:25 1020 30.12 849 25.07 7.3 45.2 61 0.3 32.5
05:30 1020 30.12 849 25.07 7.2 45 61 0.3 32.5
05:35 1020 30.12 849 25.07 7.1 44.8 62 0.3 32.5
05:40 1020 30.12 849 25.07 7.2 44.9 61 0.3 32.5
05:45 1020 30.12 849 25.07 7.2 45 62 0.4 32.7
05:50 1020 30.12 849 25.07 7.2 44.9 62 0.4 32.8
05:55 1020 30.12 849 25.07 7.1 44.8 62 0.3 32.5
06:00 1020 30.12 849 25.07 7.1 44.8 62 0.3 32.6
06:05 1020 30.12 849 25.07 7 44.6 63 0.4 32.8
06:10 1019 30.09 849 25.07 6.7 44.1 64 0.4 32.8
06:15 1019 30.09 849 25.07 6.5 43.7 64 0.2 32.3
06:20 1019 30.09 849 25.07 6.7 44 64 0.3 32.5
06:25 1019 30.09 849 25.07 6.8 44.3 64 0.5 32.9
06:30 1019 30.09 849 25.07 6.7 44.1 65 0.7 33.2
06:35 1019 30.09 849 25.07 6.5 43.6 67 0.8 33.5
06:40 1019 30.09 849 25.07 6.3 43.3 68 0.9 33.6
06:45 1020 30.12 849 25.07 6.2 43.2 68 0.7 33.2
06:50 1019 30.09 849 25.07 6.4 43.4 67 0.6 33.1
06:55 1019 30.09 849 25.07 6.4 43.5 66 0.6 33
07:00 1019 30.09 849 25.07 6.5 43.6 66 0.7 33.2
07:05 1019 30.09 849 25.07 6.5 43.6 66 0.7 33.2
07:10 1019 30.09 849 25.07 6.4 43.5 66 0.5 32.9
07:15 1019 30.09 848 25.04 6.3 43.4 67 0.6 33
07:20 1019 30.09 849 25.07 6.3 43.3 67 0.5 32.9
07:25 1019 30.09 848 25.04 6.2 43.2 68 0.8 33.5
07:30 1019 30.09 848 25.04 6.5 43.7 67 0.8 33.5
07:35 1019 30.09 848 25.04 6.8 44.2 67 1.1 33.9
07:40 1019 30.09 848 25.04 6.7 44 68 1.1 34
07:45 1019 30.09 848 25.04 6.7 44.1 68 1.2 34.1
07:50 1019 30.09 848 25.04 6.7 44.1 68 1.3 34.3
07:55 1019 30.09 848 25.04 6.9 44.3 67 1.2 34.2
08:00 1019 30.09 848 25.04 7.3 45.1 65 1.2 34.2
08:05 1019 30.09 848 25.04 7.6 45.6 65 1.4 34.6
08:10 1019 30.09 848 25.04 7.8 46 64 1.5 34.7
08:15 1019 30.09 848 25.04 7.9 46.2 65 1.7 35
08:20 1019 30.09 848 25.04 8 46.4 65 1.7 35.1
08:25 1019 30.09 848 25.04 8.4 47.2 63 1.9 35.4
08:30 1019 30.09 848 25.04 8.8 47.8 61 1.8 35.3
08:35 1019 30.09 848 25.04 9.1 48.3 60 1.7 35.1
08:40 1019 30.09 848 25.04 9.3 48.8 59 1.8 35.3
08:45 1019 30.09 848 25.04 9.6 49.4 58 1.9 35.5
08:50 1019 30.09 848 25.04 10 50.1 58 2.2 35.9
08:55 1019 30.09 848 25.04 10.5 50.8 57 2.4 36.3
09:00 1019 30.09 848 25.04 10.7 51.3 56 2.4 36.3
09:05 1019 30.09 848 25.04 10.9 51.6 54 2.1 35.8
09:10 1019 30.09 848 25.04 11.5 52.7 53 2.4 36.4
09:15 1019 30.09 848 25.04 11.6 52.8 54 2.7 36.9
09:20 1019 30.09 848 25.04 11.5 52.7 53 2.4 36.3
09:25 1019 30.09 848 25.04 11.9 53.4 52 2.5 36.5
09:30 1019 30.09 848 25.04 11.7 53 53 2.5 36.4
09:35 1019 30.09 848 25.04 12.2 54 50 2.2 36
09:40 1019 30.09 848 25.04 12.9 55.3 48 2.4 36.2
09:45 1019 30.09 848 25.04 13.3 55.9 47 2.4 36.3
09:50 1019 30.09 848 25.04 13.7 56.6 46 2.3 36.2
09:55 1019 30.09 848 25.04 12.8 55.1 50 2.6 36.7
10:00 1019 30.09 848 25.04 13.1 55.6 48 2.4 36.4
10:05 1019 30.09 848 25.04 13.1 55.7 48 2.4 36.3
10:10 1019 30.09 848 25.04 13.5 56.2 48 2.7 36.8
10:15 1019 30.09 848 25.04 13 55.4 50 2.8 37
10:20 1019 30.09 848 25.04 13.2 55.8 48 2.6 36.7
10:25 1019 30.09 848 25.04 13.9 57 46 2.7 36.8
10:30 1019 30.09 848 25.04 13.8 56.9 48 3.2 37.7
10:35 1018 30.06 848 25.04 13.6 56.6 47 2.6 36.7
10:40 1018 30.06 848 25.04 13.4 56.1 48 2.7 36.8
10:45 1018 30.06 848 25.04 13.1 55.6 47 2.2 36
10:50 1018 30.06 847 25.01 13.9 56.9 46 2.6 36.6
10:55 1018 30.06 847 25.01 15.1 59.1 42 2.4 36.3
11:00 1018 30.06 847 25.01 15 59.1 45 3.2 37.7
11:05 1018 30.06 847 25.01 14.8 58.6 45 3 37.5
11:10 1018 30.06 847 25.01 15 58.9 44 3 37.5
11:15 1018 30.06 847 25.01 15.5 59.9 43 3 37.5
11:20 1018 30.06 847 25.01 16.2 61.2 40 2.8 37
11:25 1018 30.06 847 25.01 16.7 62.1 41 3.6 38.5
11:30 1018 30.06 847 25.01 16.7 62.1 41 3.5 38.3
11:35 1018 30.06 847 25.01 17.3 63.1 39 3.3 38
11:40 1018 30.06 847 25.01 17.1 62.7 40 3.6 38.4
11:45 1018 30.06 847 25.01 17.4 63.3 40 3.8 38.8
11:50 1018 30.06 847 25.01 18.5 65.3 35 3 37.4
11:55 1017 30.03 847 25.01 19.1 66.4 34 3.2 37.7
12:00 1017 30.03 847 25.01 19 66.2 36 3.8 38.8
12:05 1017 30.03 846 24.98 18.8 65.9 34 3 37.3
12:10 1017 30.03 846 24.98 18.4 65.1 35 2.8 37
12:15 1017 30.03 846 24.98 18.7 65.7 34 2.6 36.6
12:20 1017 30.03 846 24.98 19.7 67.4 33 3 37.5
12:25 1017 30.03 846 24.98 20.3 68.6 32 3.3 38
12:30 1017 30.03 846 24.98 20.2 68.3 32 3 37.4
12:35 1017 30.03 846 24.98 20.2 68.4 32 3.4 38.1
12:40 1017 30.03 846 24.98 20.1 68.2 31 2.6 36.7
12:45 1017 30.03 846 24.98 20.7 69.2 30 2.5 36.6
12:50 1017 30.03 846 24.98 21 69.7 29 2.6 36.7
12:55 1016 30 846 24.98 21.1 70 29 2.4 36.3
13:00 1016 30 846 24.98 21.3 70.3 27 1.5 34.7
13:05 1016 30 846 24.98 21 69.8 28 1.8 35.3
13:10 1016 30 845 24.95 21.4 70.4 27 1.7 35.1
13:15 1016 30 845 24.95 21.9 71.5 25 1.4 34.5
13:20 1016 30 845 24.95 21.8 71.2 25 1.2 34.2
13:25 1016 30 845 24.95 21.6 70.9 25 1 33.8
13:30 1016 30 845 24.95 21.3 70.4 24 0.2 32.3
13:35 1016 30 845 24.95 22.2 72 21 -0.7 30.8
13:40 1016 30 845 24.95 22.2 71.9 23 0.4 32.7
13:45 1016 30 845 24.95 21.7 71 24 0.6 33.1
13:50 1016 30 845 24.95 21.4 70.6 25 0.6 33.1
13:55 1016 30 845 24.95 22 71.5 22 -0.2 31.6
14:00 1016 30 845 24.95 21.7 71.1 23 0.1 32.2
14:05 1016 30 845 24.95 20.9 69.6 25 0.1 32.1
14:10 1016 30 845 24.95 21.4 70.6 22 -1.1 30
14:15 1016 30 845 24.95 21.8 71.3 23 -0.3 31.4
14:20 1015 29.97 845 24.95 22.4 72.4 21 -0.9 30.4
14:25 1015 29.97 845 24.95 22.5 72.4 22 -0.1 31.9
14:30 1015 29.97 845 24.95 22.4 72.4 22 -0.2 31.6
14:35 1015 29.97 844 24.92 22.3 72.1 23 0.2 32.4
14:40 1015 29.97 844 24.92 22.8 73 21 -0.5 31.1
14:45 1015 29.97 844 24.92 22.8 73 22 0.1 32.2
14:50 1015 29.97 844 24.92 22.7 72.9 19 -1.6 29.2
14:55 1015 29.97 844 24.92 22.5 72.5 20 -1.1 30.1
15:00 1015 29.97 844 24.92 22.3 72.1 22 -0.5 31
15:05 1015 29.97 844 24.92 22.3 72.2 20 -1.5 29.3
15:10 1015 29.97 844 24.92 22 71.6 21 -1.3 29.7
15:15 1015 29.97 844 24.92 22.1 71.7 21 -1.4 29.5
15:20 1015 29.97 844 24.92 22.2 71.9 20 -1.3 29.6
15:25 1015 29.97 844 24.92 22.2 71.9 20 -1.7 29
15:30 1015 29.97 844 24.92 22.9 73.2 19 -2 28.4
15:35 1015 29.97 844 24.92 22.7 72.9 20 -1.5 29.3
15:40 1015 29.97 844 24.92 23.3 73.9 18 -1.8 28.7
15:45 1015 29.97 844 24.92 23.2 73.8 19 -1.2 29.8
15:50 1015 29.97 844 24.92 22.8 73.1 20 -1.3 29.6
15:55 1015 29.97 844 24.92 22.6 72.7 21 -0.7 30.8
16:00 1015 29.97 844 24.92 22.4 72.2 21 -0.5 31.1
16:05 1015 29.97 844 24.92 21.8 71.3 22 -0.5 31.1
16:10 1014 29.94 844 24.92 22.2 71.9 21 -0.8 30.6
16:15 1014 29.94 844 24.92 22 71.6 22 -0.7 30.8
16:20 1014 29.94 844 24.92 22 71.6 24 0.6 33.1
16:25 1014 29.94 844 24.92 21.8 71.3 25 1.1 34
16:30 1014 29.94 844 24.92 21.7 71.1 26 1.7 35.1
16:35 1014 29.94 844 24.92 21.6 71 25 1.2 34.1
16:40 1015 29.97 844 24.92 21.4 70.5 26 1.3 34.3
16:45 1015 29.97 844 24.92 21.3 70.3 27 1.9 35.4
16:50 1015 29.97 844 24.92 21.1 69.9 28 1.9 35.4
16:55 1015 29.97 844 24.92 20.9 69.5 28 2.1 35.8
17:00 1015 29.97 844 24.92 20.6 69.1 30 2.4 36.3
17:05 1015 29.97 844 24.92 20.9 69.6 28 2 35.5
17:10 1015 29.97 844 24.92 20.9 69.7 28 2 35.6
17:15 1015 29.97 844 24.92 21 69.8 25 0.5 32.9
17:20 1015 29.97 844 24.92 21 69.8 26 0.7 33.3
17:25 1015 29.97 844 24.92 20.7 69.2 25 0.2 32.4
17:30 1014 29.94 844 24.92 20.3 68.6 25 -0.1 31.9
17:35 1014 29.94 844 24.92 20.2 68.4 26 0 32
17:40 1014 29.94 844 24.92 20.3 68.6 25 0.1 32.1
17:45 1014 29.94 844 24.92 20 68.1 26 -0.1 31.8
17:50 1014 29.94 844 24.92 19.9 67.9 24 -1.2 29.8
17:55 1014 29.94 843 24.89 20 68 24 -1.2 29.8
18:00 1014 29.94 843 24.89 20 68 24 -1.2 29.8
18:05 1014 29.94 843 24.89 19.9 67.9 25 -0.8 30.6
18:10 1014 29.94 843 24.89 19.8 67.7 25 -0.8 30.6
18:15 1014 29.94 843 24.89 19.8 67.6 24 -1 30.2
18:20 1014 29.94 843 24.89 19.7 67.5 22 -2.2 28
18:25 1014 29.94 843 24.89 20.2 68.3 23 -1.3 29.6
18:30 1014 29.94 843 24.89 19.7 67.4 26 -0.1 31.9
18:35 1014 29.94 843 24.89 19.2 66.6 27 -0.3 31.5
18:40 1014 29.94 843 24.89 19.1 66.4 27 0 32
18:45 1014 29.94 843 24.89 18.8 65.8 28 -0 31.9
18:50 1014 29.94 843 24.89 18.7 65.7 26 -0.8 30.5
18:55 1014 29.94 843 24.89 19 66.2 25 -1.2 29.8
19:00 1014 29.94 843 24.89 19.2 66.5 28 0.2 32.3
19:05 1014 29.94 843 24.89 18.7 65.6 29 0.3 32.6
19:10 1014 29.94 843 24.89 18.3 64.9 27 -0.8 30.6
19:15 1014 29.94 843 24.89 18.3 64.9 28 -0.5 31.2
19:20 1014 29.94 843 24.89 18.1 64.5 30 0.5 32.8
19:25 1014 29.94 843 24.89 17.9 64.2 35 2.2 35.9
19:30 1014 29.94 843 24.89 17.8 64.1 32 0.8 33.5
19:35 1014 29.94 843 24.89 17.5 63.4 35 1.9 35.4
19:40 1014 29.94 843 24.89 17.4 63.3 35 1.7 35.1
19:45 1014 29.94 843 24.89 16.9 62.4 33 0.5 33
19:50 1014 29.94 843 24.89 17.2 62.9 36 2.2 35.9
19:55 1014 29.94 843 24.89 17.5 63.5 30 -0.1 31.9
20:00 1014 29.94 843 24.89 17.2 62.9 32 0.6 33
20:05 1014 29.94 843 24.89 17 62.6 33 0.7 33.2
20:10 1014 29.94 843 24.89 16.9 62.4 32 0.4 32.7
20:15 1014 29.94 843 24.89 17.1 62.7 33 0.8 33.5
20:20 1014 29.94 843 24.89 16.9 62.5 33 0.7 33.3
20:25 1014 29.94 843 24.89 17.3 63.2 31 0.2 32.4
20:30 1014 29.94 843 24.89 17.7 63.8 30 0.2 32.4
20:35 1014 29.94 843 24.89 17.7 63.9 31 0.3 32.6
20:40 1014 29.94 843 24.89 17.5 63.5 31 0.3 32.6
20:45 1014 29.94 843 24.89 17.4 63.2 32 0.5 32.9
20:50 1014 29.94 843 24.89 17.3 63.2 32 0.4 32.8
20:55 1014 29.94 843 24.89 17.4 63.4 32 0.9 33.6
21:00 1014 29.94 844 24.92 17.3 63.1 35 1.9 35.4
21:05 1014 29.94 844 24.92 16.8 62.3 35 1.4 34.6
21:10 1014 29.94 844 24.92 16.6 61.8 37 1.9 35.4
21:15 1014 29.94 844 24.92 16.5 61.6 38 2.1 35.8
21:20 1014 29.94 844 24.92 16.3 61.3 36 1.5 34.7
21:25 1014 29.94 844 24.92 16.4 61.6 35 1.2 34.2
21:30 1014 29.94 844 24.92 16.6 61.9 35 1.3 34.3
21:35 1015 29.97 844 24.92 16.7 62 37 2.1 35.8
21:40 1015 29.97 844 24.92 16.5 61.6 38 2.4 36.3
21:45 1015 29.97 844 24.92 16.8 62.2 35 1.4 34.6
21:50 1015 29.97 844 24.92 16.8 62.3 35 1.5 34.7
21:55 1015 29.97 844 24.92 17 62.7 35 1.5 34.6
22:00 1015 29.97 844 24.92 16.9 62.4 37 2.2 36
22:05 1015 29.97 844 24.92 16.6 61.9 39 2.6 36.7
22:10 1015 29.97 844 24.92 16.6 61.9 42 3.6 38.5
22:15 1015 29.97 844 24.92 16.3 61.4 44 4.1 39.4
22:20 1015 29.97 844 24.92 16.2 61.1 45 4.4 39.8
22:25 1015 29.97 845 24.95 15.9 60.7 46 4.5 40.2
22:30 1015 29.97 845 24.95 15.8 60.5 46 4.3 39.7
22:35 1016 30 845 24.95 15.8 60.5 46 4.4 40
22:40 1016 30 845 24.95 15.8 60.4 48 5 41
22:45 1015 29.97 844 24.92 15.7 60.2 48 4.9 40.8
22:50 1015 29.97 844 24.92 15.7 60.2 52 5.9 42.7
22:55 1015 29.97 844 24.92 15.6 60 51 5.6 42
23:00 1015 29.97 844 24.92 15.3 59.5 52 5.5 41.8
23:05 1015 29.97 844 24.92 15 59.1 50 4.8 40.6
23:10 1015 29.97 844 24.92 15 59 52 5.4 41.7
23:15 1015 29.97 844 24.92 14.8 58.6 54 5.8 42.4
23:20 1015 29.97 844 24.92 14.8 58.7 52 5.1 41.2
23:25 1015 29.97 844 24.92 14.7 58.4 58 6.5 43.7
23:30 1015 29.97 844 24.92 14.2 57.6 59 6.3 43.4
23:35 1015 29.97 844 24.92 14 57.1 61 6.6 43.8
23:40 1015 29.97 844 24.92 13.6 56.6 63 6.9 44.4
23:45 1015 29.97 844 24.92 13.5 56.3 64 6.8 44.3
23:50 1015 29.97 844 24.92 13.2 55.8 64 6.5 43.8
23:55 1015 29.97 844 24.92 13.1 55.6 65 6.8 44.2
24:00 1015 29.97 844 24.92 12.8 55.1 65 6.6 43.8